sensor_id;sensor_type;location;lat;lon;timestamp;P1;durP1;ratioP1;P2;durP2;ratioP2
47539;SDS011;33280;52.152;21.052;2022-12-01T00:01:39;22.80;;;11.03;;
47539;SDS011;33280;52.152;21.052;2022-12-01T00:04:06;20.87;;;11.03;;
47539;SDS011;33280;52.152;21.052;2022-12-01T00:06:33;21.83;;;11.03;;
47539;SDS011;33280;52.152;21.052;2022-12-01T00:09:02;19.70;;;11.10;;
47539;SDS011;33280;52.152;21.052;2022-12-01T00:11:48;21.10;;;11.17;;
47539;SDS011;33280;52.152;21.052;2022-12-01T00:14:15;21.90;;;11.33;;
47539;SDS011;33280;52.152;21.052;2022-12-01T00:16:45;21.97;;;11.43;;
47539;SDS011;33280;52.152;21.052;2022-12-01T00:19:12;21.37;;;11.80;;
47539;SDS011;33280;52.152;21.052;2022-12-01T00:21:40;23.07;;;11.43;;
47539;SDS011;33280;52.152;21.052;2022-12-01T00:24:17;28.23;;;11.73;;
47539;SDS011;33280;52.152;21.052;2022-12-01T00:26:47;20.30;;;11.13;;
47539;SDS011;33280;52.152;21.052;2022-12-01T00:29:21;22.73;;;11.97;;
47539;SDS011;33280;52.152;21.052;2022-12-01T00:32:10;23.00;;;11.23;;
47539;SDS011;33280;52.152;21.052;2022-12-01T00:34:38;24.00;;;12.07;;
47539;SDS011;33280;52.152;21.052;2022-12-01T00:37:05;21.77;;;11.77;;
47539;SDS011;33280;52.152;21.052;2022-12-01T00:39:32;22.17;;;11.73;;
47539;SDS011;33280;52.152;21.052;2022-12-01T00:41:59;22.43;;;11.93;;
47539;SDS011;33280;52.152;21.052;2022-12-01T00:44:26;23.07;;;12.23;;
47539;SDS011;33280;52.152;21.052;2022-12-01T00:46:58;23.00;;;11.90;;
47539;SDS011;33280;52.152;21.052;2022-12-01T00:49:26;22.43;;;12.53;;
47539;SDS011;33280;52.152;21.052;2022-12-01T00:51:52;22.43;;;12.07;;
47539;SDS011;33280;52.152;21.052;2022-12-01T00:54:20;23.10;;;12.17;;
47539;SDS011;33280;52.152;21.052;2022-12-01T00:56:47;24.37;;;12.63;;
47539;SDS011;33280;52.152;21.052;2022-12-01T00:59:15;23.40;;;12.77;;
47539;SDS011;33280;52.152;21.052;2022-12-01T01:01:41;22.30;;;12.13;;
47539;SDS011;33280;52.152;21.052;2022-12-01T01:04:08;24.80;;;12.60;;
47539;SDS011;33280;52.152;21.052;2022-12-01T01:06:36;24.50;;;12.60;;
47539;SDS011;33280;52.152;21.052;2022-12-01T01:09:03;23.30;;;12.83;;
47539;SDS011;33280;52.152;21.052;2022-12-01T01:11:30;24.53;;;12.27;;
47539;SDS011;33280;52.152;21.052;2022-12-01T01:13:57;23.73;;;12.97;;
47539;SDS011;33280;52.152;21.052;2022-12-01T01:16:25;24.03;;;12.63;;
47539;SDS011;33280;52.152;21.052;2022-12-01T01:18:52;24.17;;;13.37;;
47539;SDS011;33280;52.152;21.052;2022-12-01T01:21:19;32.60;;;13.83;;
47539;SDS011;33280;52.152;21.052;2022-12-01T01:23:47;26.40;;;13.27;;
47539;SDS011;33280;52.152;21.052;2022-12-01T01:28:44;26.07;;;13.30;;
47539;SDS011;33280;52.152;21.052;2022-12-01T01:31:13;24.63;;;13.23;;
47539;SDS011;33280;52.152;21.052;2022-12-01T01:33:43;24.57;;;13.20;;
47539;SDS011;33280;52.152;21.052;2022-12-01T01:36:13;24.93;;;13.20;;
47539;SDS011;33280;52.152;21.052;2022-12-01T01:38:44;31.10;;;13.23;;
47539;SDS011;33280;52.152;21.052;2022-12-01T01:41:12;26.13;;;13.67;;
47539;SDS011;33280;52.152;21.052;2022-12-01T01:46:10;22.03;;;12.27;;
47539;SDS011;33280;52.152;21.052;2022-12-01T01:51:42;24.07;;;12.83;;
47539;SDS011;33280;52.152;21.052;2022-12-01T01:56:53;24.07;;;12.17;;
47539;SDS011;33280;52.152;21.052;2022-12-01T01:59:24;26.47;;;13.50;;
47539;SDS011;33280;52.152;21.052;2022-12-01T02:02:02;24.43;;;13.20;;
47539;SDS011;33280;52.152;21.052;2022-12-01T02:04:33;24.43;;;13.33;;
47539;SDS011;33280;52.152;21.052;2022-12-01T02:07:06;25.27;;;13.77;;
47539;SDS011;33280;52.152;21.052;2022-12-01T02:09:36;28.83;;;14.03;;
47539;SDS011;33280;52.152;21.052;2022-12-01T02:29:40;23.53;;;13.27;;
47539;SDS011;33280;52.152;21.052;2022-12-01T02:43:52;25.23;;;12.97;;
47539;SDS011;33280;52.152;21.052;2022-12-01T02:49:25;24.60;;;12.80;;
47539;SDS011;33280;52.152;21.052;2022-12-01T02:51:55;25.10;;;13.20;;
47539;SDS011;33280;52.152;21.052;2022-12-01T02:54:23;25.27;;;14.33;;
47539;SDS011;33280;52.152;21.052;2022-12-01T02:56:53;22.87;;;12.73;;
47539;SDS011;33280;52.152;21.052;2022-12-01T02:59:20;25.50;;;13.43;;
47539;SDS011;33280;52.152;21.052;2022-12-01T03:13:06;22.50;;;12.90;;
47539;SDS011;33280;52.152;21.052;2022-12-01T03:24:00;24.50;;;13.77;;
47539;SDS011;33280;52.152;21.052;2022-12-01T03:26:33;23.80;;;13.63;;
47539;SDS011;33280;52.152;21.052;2022-12-01T03:29:05;28.20;;;13.67;;
47539;SDS011;33280;52.152;21.052;2022-12-01T03:31:43;21.67;;;12.80;;
47539;SDS011;33280;52.152;21.052;2022-12-01T03:34:17;25.30;;;13.27;;
47539;SDS011;33280;52.152;21.052;2022-12-01T03:37:00;23.27;;;13.47;;
47539;SDS011;33280;52.152;21.052;2022-12-01T03:39:32;24.07;;;13.37;;
47539;SDS011;33280;52.152;21.052;2022-12-01T03:42:02;26.37;;;13.63;;
47539;SDS011;33280;52.152;21.052;2022-12-01T03:44:44;29.13;;;14.10;;
47539;SDS011;33280;52.152;21.052;2022-12-01T03:47:18;21.93;;;12.43;;
47539;SDS011;33280;52.152;21.052;2022-12-01T03:49:49;25.10;;;13.80;;
47539;SDS011;33280;52.152;21.052;2022-12-01T03:55:01;24.23;;;12.97;;
47539;SDS011;33280;52.152;21.052;2022-12-01T03:57:40;23.43;;;13.03;;
47539;SDS011;33280;52.152;21.052;2022-12-01T04:00:14;24.47;;;12.77;;
47539;SDS011;33280;52.152;21.052;2022-12-01T04:02:45;23.30;;;13.23;;
47539;SDS011;33280;52.152;21.052;2022-12-01T04:05:12;26.40;;;13.97;;
47539;SDS011;33280;52.152;21.052;2022-12-01T04:07:39;32.37;;;14.60;;
47539;SDS011;33280;52.152;21.052;2022-12-01T04:10:06;29.30;;;14.53;;
47539;SDS011;33280;52.152;21.052;2022-12-01T04:12:34;24.50;;;13.57;;
47539;SDS011;33280;52.152;21.052;2022-12-01T04:15:02;24.70;;;13.67;;
47539;SDS011;33280;52.152;21.052;2022-12-01T04:17:34;24.23;;;14.23;;
47539;SDS011;33280;52.152;21.052;2022-12-01T04:20:02;25.77;;;13.17;;
47539;SDS011;33280;52.152;21.052;2022-12-01T04:22:34;24.80;;;13.87;;
47539;SDS011;33280;52.152;21.052;2022-12-01T04:25:05;25.10;;;14.10;;
47539;SDS011;33280;52.152;21.052;2022-12-01T04:27:32;24.07;;;13.10;;
47539;SDS011;33280;52.152;21.052;2022-12-01T04:30:00;23.43;;;13.37;;
47539;SDS011;33280;52.152;21.052;2022-12-01T04:32:27;29.00;;;13.93;;
47539;SDS011;33280;52.152;21.052;2022-12-01T04:34:54;24.93;;;13.13;;
47539;SDS011;33280;52.152;21.052;2022-12-01T04:37:21;27.23;;;14.07;;
47539;SDS011;33280;52.152;21.052;2022-12-01T04:39:48;26.20;;;13.80;;
47539;SDS011;33280;52.152;21.052;2022-12-01T04:42:16;24.63;;;13.40;;
47539;SDS011;33280;52.152;21.052;2022-12-01T04:44:45;25.37;;;14.00;;
47539;SDS011;33280;52.152;21.052;2022-12-01T04:47:12;21.67;;;12.70;;
47539;SDS011;33280;52.152;21.052;2022-12-01T04:49:39;25.47;;;14.07;;
47539;SDS011;33280;52.152;21.052;2022-12-01T04:52:09;26.33;;;14.13;;
47539;SDS011;33280;52.152;21.052;2022-12-01T04:54:36;26.37;;;14.27;;
47539;SDS011;33280;52.152;21.052;2022-12-01T04:57:03;26.33;;;13.73;;
47539;SDS011;33280;52.152;21.052;2022-12-01T04:59:33;25.17;;;14.30;;
47539;SDS011;33280;52.152;21.052;2022-12-01T05:02:00;25.87;;;13.30;;
47539;SDS011;33280;52.152;21.052;2022-12-01T05:04:29;27.13;;;14.50;;
47539;SDS011;33280;52.152;21.052;2022-12-01T05:06:58;30.87;;;14.77;;
47539;SDS011;33280;52.152;21.052;2022-12-01T05:09:28;27.47;;;14.10;;
47539;SDS011;33280;52.152;21.052;2022-12-01T05:11:55;26.47;;;13.63;;
47539;SDS011;33280;52.152;21.052;2022-12-01T05:14:22;26.77;;;14.60;;
47539;SDS011;33280;52.152;21.052;2022-12-01T05:16:51;28.33;;;14.67;;
47539;SDS011;33280;52.152;21.052;2022-12-01T05:19:20;30.83;;;15.73;;
47539;SDS011;33280;52.152;21.052;2022-12-01T05:22:05;29.07;;;14.93;;
47539;SDS011;33280;52.152;21.052;2022-12-01T05:24:32;31.93;;;15.03;;
47539;SDS011;33280;52.152;21.052;2022-12-01T05:26:59;28.40;;;14.87;;
47539;SDS011;33280;52.152;21.052;2022-12-01T05:29:26;35.47;;;15.67;;
47539;SDS011;33280;52.152;21.052;2022-12-01T05:31:53;27.80;;;14.40;;
47539;SDS011;33280;52.152;21.052;2022-12-01T05:34:20;27.90;;;14.63;;
47539;SDS011;33280;52.152;21.052;2022-12-01T05:36:47;26.93;;;14.77;;
47539;SDS011;33280;52.152;21.052;2022-12-01T05:39:14;29.97;;;14.17;;
47539;SDS011;33280;52.152;21.052;2022-12-01T05:41:41;25.53;;;13.90;;
47539;SDS011;33280;52.152;21.052;2022-12-01T05:44:08;31.20;;;14.40;;
47539;SDS011;33280;52.152;21.052;2022-12-01T05:46:35;27.70;;;14.70;;
47539;SDS011;33280;52.152;21.052;2022-12-01T05:49:02;30.53;;;14.77;;
47539;SDS011;33280;52.152;21.052;2022-12-01T05:51:29;27.07;;;14.63;;
47539;SDS011;33280;52.152;21.052;2022-12-01T05:53:58;25.20;;;14.27;;
47539;SDS011;33280;52.152;21.052;2022-12-01T05:56:25;26.87;;;14.17;;
47539;SDS011;33280;52.152;21.052;2022-12-01T05:58:52;28.20;;;14.67;;
47539;SDS011;33280;52.152;21.052;2022-12-01T06:01:19;28.33;;;14.43;;
47539;SDS011;33280;52.152;21.052;2022-12-01T06:03:46;27.27;;;14.80;;
47539;SDS011;33280;52.152;21.052;2022-12-01T06:06:17;25.47;;;14.03;;
47539;SDS011;33280;52.152;21.052;2022-12-01T06:08:57;25.40;;;14.03;;
47539;SDS011;33280;52.152;21.052;2022-12-01T06:11:24;24.90;;;13.70;;
47539;SDS011;33280;52.152;21.052;2022-12-01T06:13:51;26.20;;;14.13;;
47539;SDS011;33280;52.152;21.052;2022-12-01T06:16:18;24.73;;;13.87;;
47539;SDS011;33280;52.152;21.052;2022-12-01T06:18:47;25.07;;;13.70;;
47539;SDS011;33280;52.152;21.052;2022-12-01T06:21:14;25.40;;;13.27;;
47539;SDS011;33280;52.152;21.052;2022-12-01T06:23:41;28.07;;;13.83;;
47539;SDS011;33280;52.152;21.052;2022-12-01T06:26:11;24.13;;;13.10;;
47539;SDS011;33280;52.152;21.052;2022-12-01T06:28:38;24.13;;;13.67;;
47539;SDS011;33280;52.152;21.052;2022-12-01T06:31:05;23.80;;;13.73;;
47539;SDS011;33280;52.152;21.052;2022-12-01T06:33:32;22.70;;;12.67;;
47539;SDS011;33280;52.152;21.052;2022-12-01T06:35:59;23.90;;;13.20;;
47539;SDS011;33280;52.152;21.052;2022-12-01T06:38:31;24.00;;;13.27;;
47539;SDS011;33280;52.152;21.052;2022-12-01T06:41:00;22.70;;;13.20;;
47539;SDS011;33280;52.152;21.052;2022-12-01T06:43:28;26.30;;;14.13;;
47539;SDS011;33280;52.152;21.052;2022-12-01T06:45:55;26.20;;;14.20;;
47539;SDS011;33280;52.152;21.052;2022-12-01T06:48:27;24.13;;;13.43;;
47539;SDS011;33280;52.152;21.052;2022-12-01T06:50:58;24.20;;;12.93;;
47539;SDS011;33280;52.152;21.052;2022-12-01T06:53:26;25.03;;;13.40;;
47539;SDS011;33280;52.152;21.052;2022-12-01T06:56:00;26.17;;;13.13;;
47539;SDS011;33280;52.152;21.052;2022-12-01T06:58:30;22.10;;;12.47;;
47539;SDS011;33280;52.152;21.052;2022-12-01T07:00:57;23.33;;;12.33;;
47539;SDS011;33280;52.152;21.052;2022-12-01T07:03:30;22.73;;;12.97;;
47539;SDS011;33280;52.152;21.052;2022-12-01T07:05:58;21.27;;;12.07;;
47539;SDS011;33280;52.152;21.052;2022-12-01T07:08:27;20.50;;;12.03;;
47539;SDS011;33280;52.152;21.052;2022-12-01T07:10:56;22.30;;;12.23;;
47539;SDS011;33280;52.152;21.052;2022-12-01T07:13:30;22.33;;;12.57;;
47539;SDS011;33280;52.152;21.052;2022-12-01T07:16:02;21.93;;;12.50;;
47539;SDS011;33280;52.152;21.052;2022-12-01T07:18:32;20.80;;;12.43;;
47539;SDS011;33280;52.152;21.052;2022-12-01T07:21:03;20.10;;;11.80;;
47539;SDS011;33280;52.152;21.052;2022-12-01T07:23:32;20.73;;;11.87;;
47539;SDS011;33280;52.152;21.052;2022-12-01T07:26:00;22.43;;;12.50;;
47539;SDS011;33280;52.152;21.052;2022-12-01T07:28:28;24.27;;;13.27;;
47539;SDS011;33280;52.152;21.052;2022-12-01T07:31:11;24.17;;;12.93;;
47539;SDS011;33280;52.152;21.052;2022-12-01T07:33:40;22.90;;;13.03;;
47539;SDS011;33280;52.152;21.052;2022-12-01T07:36:17;21.07;;;12.37;;
47539;SDS011;33280;52.152;21.052;2022-12-01T07:38:47;21.33;;;12.43;;
47539;SDS011;33280;52.152;21.052;2022-12-01T07:41:15;19.63;;;11.93;;
47539;SDS011;33280;52.152;21.052;2022-12-01T07:43:46;22.90;;;12.33;;
47539;SDS011;33280;52.152;21.052;2022-12-01T07:46:17;21.20;;;11.47;;
47539;SDS011;33280;52.152;21.052;2022-12-01T07:48:49;22.13;;;12.23;;
47539;SDS011;33280;52.152;21.052;2022-12-01T07:51:17;22.23;;;12.20;;
47539;SDS011;33280;52.152;21.052;2022-12-01T07:53:46;34.80;;;14.50;;
47539;SDS011;33280;52.152;21.052;2022-12-01T07:56:15;24.47;;;13.07;;
47539;SDS011;33280;52.152;21.052;2022-12-01T07:58:42;22.13;;;12.57;;
47539;SDS011;33280;52.152;21.052;2022-12-01T08:01:14;24.50;;;12.70;;
47539;SDS011;33280;52.152;21.052;2022-12-01T08:03:43;27.67;;;12.53;;
47539;SDS011;33280;52.152;21.052;2022-12-01T08:06:10;29.43;;;13.50;;
47539;SDS011;33280;52.152;21.052;2022-12-01T08:08:40;23.23;;;12.47;;
47539;SDS011;33280;52.152;21.052;2022-12-01T08:11:12;23.40;;;12.67;;
47539;SDS011;33280;52.152;21.052;2022-12-01T08:13:51;23.43;;;12.63;;
47539;SDS011;33280;52.152;21.052;2022-12-01T08:16:22;23.10;;;12.83;;
47539;SDS011;33280;52.152;21.052;2022-12-01T08:18:50;25.75;;;15.73;;
47539;SDS011;33280;52.152;21.052;2022-12-01T08:21:25;32.53;;;14.77;;
47539;SDS011;33280;52.152;21.052;2022-12-01T08:23:56;28.00;;;14.27;;
47539;SDS011;33280;52.152;21.052;2022-12-01T08:26:57;25.70;;;14.07;;
47539;SDS011;33280;52.152;21.052;2022-12-01T08:29:24;26.33;;;13.70;;
47539;SDS011;33280;52.152;21.052;2022-12-01T08:31:51;32.27;;;15.00;;
47539;SDS011;33280;52.152;21.052;2022-12-01T08:34:22;27.03;;;14.20;;
47539;SDS011;33280;52.152;21.052;2022-12-01T08:36:52;28.43;;;14.83;;
47539;SDS011;33280;52.152;21.052;2022-12-01T08:39:19;29.30;;;14.73;;
47539;SDS011;33280;52.152;21.052;2022-12-01T08:41:46;33.37;;;14.53;;
47539;SDS011;33280;52.152;21.052;2022-12-01T08:44:26;33.57;;;15.80;;
47539;SDS011;33280;52.152;21.052;2022-12-01T08:46:53;30.00;;;15.93;;
47539;SDS011;33280;52.152;21.052;2022-12-01T08:49:37;33.10;;;16.17;;
47539;SDS011;33280;52.152;21.052;2022-12-01T08:52:19;35.07;;;15.73;;
47539;SDS011;33280;52.152;21.052;2022-12-01T08:54:47;31.47;;;16.00;;
47539;SDS011;33280;52.152;21.052;2022-12-01T08:57:14;30.37;;;15.43;;
47539;SDS011;33280;52.152;21.052;2022-12-01T08:59:41;28.27;;;14.70;;
47539;SDS011;33280;52.152;21.052;2022-12-01T09:02:15;31.80;;;15.43;;
47539;SDS011;33280;52.152;21.052;2022-12-01T09:04:47;32.27;;;16.13;;
47539;SDS011;33280;52.152;21.052;2022-12-01T09:07:20;32.57;;;15.83;;
47539;SDS011;33280;52.152;21.052;2022-12-01T09:10:00;30.30;;;15.83;;
47539;SDS011;33280;52.152;21.052;2022-12-01T09:12:31;33.27;;;15.47;;
47539;SDS011;33280;52.152;21.052;2022-12-01T09:14:58;33.20;;;16.77;;
47539;SDS011;33280;52.152;21.052;2022-12-01T09:17:43;31.97;;;15.50;;
47539;SDS011;33280;52.152;21.052;2022-12-01T09:20:13;34.00;;;16.30;;
47539;SDS011;33280;52.152;21.052;2022-12-01T09:22:49;35.90;;;17.27;;
47539;SDS011;33280;52.152;21.052;2022-12-01T09:25:20;35.00;;;17.50;;
47539;SDS011;33280;52.152;21.052;2022-12-01T09:27:47;36.53;;;17.37;;
47539;SDS011;33280;52.152;21.052;2022-12-01T09:30:16;35.93;;;16.70;;
47539;SDS011;33280;52.152;21.052;2022-12-01T09:32:46;36.67;;;16.53;;
47539;SDS011;33280;52.152;21.052;2022-12-01T09:35:13;36.43;;;17.63;;
47539;SDS011;33280;52.152;21.052;2022-12-01T09:37:46;31.83;;;16.23;;
47539;SDS011;33280;52.152;21.052;2022-12-01T09:40:13;35.27;;;15.87;;
47539;SDS011;33280;52.152;21.052;2022-12-01T09:42:41;29.37;;;15.80;;
47539;SDS011;33280;52.152;21.052;2022-12-01T09:45:14;25.83;;;13.67;;
47539;SDS011;33280;52.152;21.052;2022-12-01T09:47:51;27.30;;;14.10;;
47539;SDS011;33280;52.152;21.052;2022-12-01T09:50:21;26.73;;;13.50;;
47539;SDS011;33280;52.152;21.052;2022-12-01T09:52:52;26.17;;;13.47;;
47539;SDS011;33280;52.152;21.052;2022-12-01T09:55:23;28.63;;;13.60;;
47539;SDS011;33280;52.152;21.052;2022-12-01T09:57:52;33.10;;;14.83;;
47539;SDS011;33280;52.152;21.052;2022-12-01T10:00:28;30.40;;;15.07;;
47539;SDS011;33280;52.152;21.052;2022-12-01T10:05:44;34.10;;;15.47;;
47539;SDS011;33280;52.152;21.052;2022-12-01T10:08:47;30.27;;;14.77;;
47539;SDS011;33280;52.152;21.052;2022-12-01T10:14:01;32.57;;;15.43;;
47539;SDS011;33280;52.152;21.052;2022-12-01T10:16:32;30.53;;;15.97;;
47539;SDS011;33280;52.152;21.052;2022-12-01T10:19:16;34.30;;;17.30;;
47539;SDS011;33280;52.152;21.052;2022-12-01T10:24:52;40.63;;;17.23;;
47539;SDS011;33280;52.152;21.052;2022-12-01T10:27:54;62.23;;;18.33;;
47539;SDS011;33280;52.152;21.052;2022-12-01T10:30:27;34.60;;;16.93;;
47539;SDS011;33280;52.152;21.052;2022-12-01T10:32:55;36.87;;;16.97;;
47539;SDS011;33280;52.152;21.052;2022-12-01T10:35:45;34.93;;;16.77;;
47539;SDS011;33280;52.152;21.052;2022-12-01T10:38:26;36.13;;;17.43;;
47539;SDS011;33280;52.152;21.052;2022-12-01T10:41:01;35.60;;;17.90;;
47539;SDS011;33280;52.152;21.052;2022-12-01T10:43:46;44.00;;;17.77;;
47539;SDS011;33280;52.152;21.052;2022-12-01T10:49:12;39.37;;;17.93;;
47539;SDS011;33280;52.152;21.052;2022-12-01T10:51:53;40.67;;;17.70;;
47539;SDS011;33280;52.152;21.052;2022-12-01T10:54:27;47.70;;;18.97;;
47539;SDS011;33280;52.152;21.052;2022-12-01T10:57:06;39.67;;;18.27;;
47539;SDS011;33280;52.152;21.052;2022-12-01T10:59:48;50.57;;;19.77;;
47539;SDS011;33280;52.152;21.052;2022-12-01T11:02:26;42.27;;;18.83;;
47539;SDS011;33280;52.152;21.052;2022-12-01T11:04:57;46.07;;;20.17;;
47539;SDS011;33280;52.152;21.052;2022-12-01T11:07:47;45.07;;;19.13;;
47539;SDS011;33280;52.152;21.052;2022-12-01T11:10:23;46.20;;;20.00;;
47539;SDS011;33280;52.152;21.052;2022-12-01T11:13:22;45.13;;;19.17;;
47539;SDS011;33280;52.152;21.052;2022-12-01T11:15:54;46.47;;;19.40;;
47539;SDS011;33280;52.152;21.052;2022-12-01T11:23:35;43.10;;;18.63;;
47539;SDS011;33280;52.152;21.052;2022-12-01T11:26:22;43.37;;;19.20;;
47539;SDS011;33280;52.152;21.052;2022-12-01T11:29:02;46.10;;;19.57;;
47539;SDS011;33280;52.152;21.052;2022-12-01T11:31:46;48.37;;;19.57;;
47539;SDS011;33280;52.152;21.052;2022-12-01T11:34:37;49.87;;;21.40;;
47539;SDS011;33280;52.152;21.052;2022-12-01T11:37:07;47.47;;;20.23;;
47539;SDS011;33280;52.152;21.052;2022-12-01T11:39:41;52.20;;;21.77;;
47539;SDS011;33280;52.152;21.052;2022-12-01T11:44:37;52.00;;;22.00;;
47539;SDS011;33280;52.152;21.052;2022-12-01T11:47:21;53.10;;;20.50;;
47539;SDS011;33280;52.152;21.052;2022-12-01T11:49:58;48.43;;;21.53;;
47539;SDS011;33280;52.152;21.052;2022-12-01T11:52:31;51.03;;;22.10;;
47539;SDS011;33280;52.152;21.052;2022-12-01T11:57:41;56.83;;;22.23;;
47539;SDS011;33280;52.152;21.052;2022-12-01T12:00:12;52.47;;;21.07;;
47539;SDS011;33280;52.152;21.052;2022-12-01T12:02:50;61.73;;;23.80;;
47539;SDS011;33280;52.152;21.052;2022-12-01T12:11:53;53.80;;;21.87;;
47539;SDS011;33280;52.152;21.052;2022-12-01T12:17:33;54.33;;;22.77;;
47539;SDS011;33280;52.152;21.052;2022-12-01T12:20:10;65.27;;;23.30;;
47539;SDS011;33280;52.152;21.052;2022-12-01T12:22:48;58.73;;;23.53;;
47539;SDS011;33280;52.152;21.052;2022-12-01T12:31:17;56.53;;;21.10;;
47539;SDS011;33280;52.152;21.052;2022-12-01T12:36:51;61.00;;;22.33;;
47539;SDS011;33280;52.152;21.052;2022-12-01T12:42:21;53.33;;;20.77;;
47539;SDS011;33280;52.152;21.052;2022-12-01T12:45:29;47.00;;;18.60;;
47539;SDS011;33280;52.152;21.052;2022-12-01T12:51:31;42.97;;;17.97;;
47539;SDS011;33280;52.152;21.052;2022-12-01T12:56:49;37.67;;;17.03;;
47539;SDS011;33280;52.152;21.052;2022-12-01T12:59:26;39.03;;;15.47;;
47539;SDS011;33280;52.152;21.052;2022-12-01T13:02:56;30.67;;;14.00;;
47539;SDS011;33280;52.152;21.052;2022-12-01T13:05:33;27.13;;;12.57;;
47539;SDS011;33280;52.152;21.052;2022-12-01T13:08:36;29.40;;;12.87;;
47539;SDS011;33280;52.152;21.052;2022-12-01T13:11:28;25.90;;;12.40;;
47539;SDS011;33280;52.152;21.052;2022-12-01T13:14:26;25.87;;;11.80;;
47539;SDS011;33280;52.152;21.052;2022-12-01T13:16:55;24.00;;;10.90;;
47539;SDS011;33280;52.152;21.052;2022-12-01T13:20:05;19.63;;;9.90;;
47539;SDS011;33280;52.152;21.052;2022-12-01T13:22:38;18.93;;;8.90;;
47539;SDS011;33280;52.152;21.052;2022-12-01T13:25:20;15.90;;;8.20;;
47539;SDS011;33280;52.152;21.052;2022-12-01T13:28:01;18.50;;;8.40;;
47539;SDS011;33280;52.152;21.052;2022-12-01T13:30:37;18.43;;;8.77;;
47539;SDS011;33280;52.152;21.052;2022-12-01T13:33:12;16.10;;;8.20;;
47539;SDS011;33280;52.152;21.052;2022-12-01T13:35:41;19.10;;;8.60;;
47539;SDS011;33280;52.152;21.052;2022-12-01T13:38:19;15.90;;;8.20;;
47539;SDS011;33280;52.152;21.052;2022-12-01T13:46:58;15.23;;;7.70;;
47539;SDS011;33280;52.152;21.052;2022-12-01T13:49:42;15.97;;;7.87;;
47539;SDS011;33280;52.152;21.052;2022-12-01T13:57:35;12.90;;;6.47;;
47539;SDS011;33280;52.152;21.052;2022-12-01T14:00:32;10.90;;;6.33;;
47539;SDS011;33280;52.152;21.052;2022-12-01T14:08:28;12.00;;;6.63;;
47539;SDS011;33280;52.152;21.052;2022-12-01T14:11:20;14.23;;;7.57;;
47539;SDS011;33280;52.152;21.052;2022-12-01T14:16:52;15.17;;;7.73;;
47539;SDS011;33280;52.152;21.052;2022-12-01T14:24:58;16.53;;;7.90;;
47539;SDS011;33280;52.152;21.052;2022-12-01T14:27:39;14.60;;;7.50;;
47539;SDS011;33280;52.152;21.052;2022-12-01T14:36:18;16.17;;;7.83;;
47539;SDS011;33280;52.152;21.052;2022-12-01T14:41:28;16.03;;;8.23;;
47539;SDS011;33280;52.152;21.052;2022-12-01T14:44:11;14.83;;;8.20;;
47539;SDS011;33280;52.152;21.052;2022-12-01T14:46:54;17.20;;;8.20;;
47539;SDS011;33280;52.152;21.052;2022-12-01T14:49:43;18.67;;;8.80;;
47539;SDS011;33280;52.152;21.052;2022-12-01T14:54:55;16.17;;;8.70;;
47539;SDS011;33280;52.152;21.052;2022-12-01T14:57:28;17.73;;;8.90;;
47539;SDS011;33280;52.152;21.052;2022-12-01T15:00:04;18.67;;;10.10;;
47539;SDS011;33280;52.152;21.052;2022-12-01T15:02:40;18.73;;;9.90;;
47539;SDS011;33280;52.152;21.052;2022-12-01T15:05:13;20.13;;;9.87;;
47539;SDS011;33280;52.152;21.052;2022-12-01T15:07:44;19.90;;;10.77;;
47539;SDS011;33280;52.152;21.052;2022-12-01T15:10:23;20.17;;;10.17;;
47539;SDS011;33280;52.152;21.052;2022-12-01T15:12:52;19.27;;;10.07;;
47539;SDS011;33280;52.152;21.052;2022-12-01T15:15:20;20.57;;;10.60;;
47539;SDS011;33280;52.152;21.052;2022-12-01T15:17:52;23.27;;;11.13;;
47539;SDS011;33280;52.152;21.052;2022-12-01T15:20:31;20.87;;;11.23;;
47539;SDS011;33280;52.152;21.052;2022-12-01T15:23:11;20.63;;;10.90;;
47539;SDS011;33280;52.152;21.052;2022-12-01T15:25:41;18.37;;;10.87;;
47539;SDS011;33280;52.152;21.052;2022-12-01T15:28:21;20.70;;;11.53;;
47539;SDS011;33280;52.152;21.052;2022-12-01T15:30:56;21.83;;;11.53;;
47539;SDS011;33280;52.152;21.052;2022-12-01T15:33:31;21.27;;;11.30;;
47539;SDS011;33280;52.152;21.052;2022-12-01T15:36:09;22.90;;;12.03;;
47539;SDS011;33280;52.152;21.052;2022-12-01T15:38:39;19.70;;;10.83;;
47539;SDS011;33280;52.152;21.052;2022-12-01T15:41:16;24.17;;;11.83;;
47539;SDS011;33280;52.152;21.052;2022-12-01T15:43:58;21.43;;;11.67;;
47539;SDS011;33280;52.152;21.052;2022-12-01T15:46:36;21.93;;;11.07;;
47539;SDS011;33280;52.152;21.052;2022-12-01T15:49:07;20.87;;;11.63;;
47539;SDS011;33280;52.152;21.052;2022-12-01T15:52:03;26.20;;;12.63;;
47539;SDS011;33280;52.152;21.052;2022-12-01T15:54:35;23.47;;;12.47;;
47539;SDS011;33280;52.152;21.052;2022-12-01T15:57:31;24.87;;;13.07;;
47539;SDS011;33280;52.152;21.052;2022-12-01T16:00:00;29.93;;;13.50;;
47539;SDS011;33280;52.152;21.052;2022-12-01T16:02:28;27.30;;;13.80;;
47539;SDS011;33280;52.152;21.052;2022-12-01T16:05:13;27.93;;;14.53;;
47539;SDS011;33280;52.152;21.052;2022-12-01T16:07:45;25.60;;;14.10;;
47539;SDS011;33280;52.152;21.052;2022-12-01T16:10:34;31.33;;;15.17;;
47539;SDS011;33280;52.152;21.052;2022-12-01T16:16:20;33.60;;;16.03;;
47539;SDS011;33280;52.152;21.052;2022-12-01T16:21:41;33.07;;;16.90;;
47539;SDS011;33280;52.152;21.052;2022-12-01T16:24:13;30.80;;;16.43;;
47539;SDS011;33280;52.152;21.052;2022-12-01T16:26:47;33.33;;;16.43;;
47539;SDS011;33280;52.152;21.052;2022-12-01T16:29:17;38.87;;;16.83;;
47539;SDS011;33280;52.152;21.052;2022-12-01T16:31:50;32.00;;;17.03;;
47539;SDS011;33280;52.152;21.052;2022-12-01T16:34:44;33.23;;;15.50;;
47539;SDS011;33280;52.152;21.052;2022-12-01T16:37:13;32.40;;;15.77;;
47539;SDS011;33280;52.152;21.052;2022-12-01T16:39:41;32.77;;;15.67;;
47539;SDS011;33280;52.152;21.052;2022-12-01T16:42:12;34.13;;;16.30;;
47539;SDS011;33280;52.152;21.052;2022-12-01T16:44:41;33.80;;;16.37;;
47539;SDS011;33280;52.152;21.052;2022-12-01T16:47:14;34.50;;;16.47;;
47539;SDS011;33280;52.152;21.052;2022-12-01T16:49:43;31.30;;;15.00;;
47539;SDS011;33280;52.152;21.052;2022-12-01T16:52:14;34.03;;;16.33;;
47539;SDS011;33280;52.152;21.052;2022-12-01T16:55:21;30.43;;;15.63;;
47539;SDS011;33280;52.152;21.052;2022-12-01T16:57:55;33.13;;;15.03;;
47539;SDS011;33280;52.152;21.052;2022-12-01T17:00:23;30.73;;;14.87;;
47539;SDS011;33280;52.152;21.052;2022-12-01T17:02:50;30.90;;;15.20;;
47539;SDS011;33280;52.152;21.052;2022-12-01T17:05:23;33.77;;;15.63;;
47539;SDS011;33280;52.152;21.052;2022-12-01T17:08:03;29.03;;;14.83;;
47539;SDS011;33280;52.152;21.052;2022-12-01T17:17:22;31.70;;;14.80;;
47539;SDS011;33280;52.152;21.052;2022-12-01T17:20:27;28.97;;;14.10;;
47539;SDS011;33280;52.152;21.052;2022-12-01T17:23:17;29.37;;;14.77;;
47539;SDS011;33280;52.152;21.052;2022-12-01T17:25:59;31.27;;;13.80;;
47539;SDS011;33280;52.152;21.052;2022-12-01T17:28:44;50.73;;;17.17;;
47539;SDS011;33280;52.152;21.052;2022-12-01T17:34:06;32.50;;;16.07;;